Time;durP1;ratioP1;P1;durP2;ratioP2;P2;SDS_P1;SDS_P2;PMS_P1;PMS_P2;Temp;Humidity;BMP_temperature;BMP_pressure;BME280_temperature;BME280_humidity;BME280_pressure;Samples;Min_cycle;Max_cycle;Signal;HPM_P1;HPM_P2
2023/12/18 00:00:15;;;;;;;20.10;12.52;;;8.20;60.50;;;;;;5075032;28;20039;-73
2023/12/18 00:02:41;;;;;;;21.02;12.20;;;8.20;60.70;;;;;;5074886;28;20040;-72
2023/12/18 00:05:08;;;;;;;19.55;11.75;;;8.20;60.40;;;;;;5074880;28;20044;-72
2023/12/18 00:07:34;;;;;;;17.92;11.73;;;8.30;60.70;;;;;;5075027;28;20024;-73
2023/12/18 00:10:00;;;;;;;15.45;11.60;;;8.20;60.60;;;;;;5057026;28;20032;-72
2023/12/18 00:12:25;;;;;;;21.98;12.15;;;8.20;60.60;;;;;;5074692;28;20044;-73
2023/12/18 00:14:52;;;;;;;18.05;11.50;;;8.20;60.90;;;;;;5074993;28;20086;-72
2023/12/18 00:17:18;;;;;;;19.73;11.30;;;8.20;61.00;;;;;;5074992;28;20056;-73
2023/12/18 00:19:44;;;;;;;19.05;11.88;;;8.20;61.00;;;;;;5076720;28;20432;-71
2023/12/18 00:22:10;;;;;;;19.15;11.55;;;8.20;61.20;;;;;;5074852;28;20075;-73
2023/12/18 00:24:35;;;;;;;17.48;11.45;;;8.10;61.30;;;;;;5074562;28;20486;-71
2023/12/18 00:27:01;;;;;;;18.27;10.80;;;8.10;61.40;;;;;;5074777;28;20029;-72
2023/12/18 00:29:27;;;;;;;19.38;12.05;;;8.10;61.50;;;;;;5074733;28;20028;-73
2023/12/18 00:31:53;;;;;;;19.90;11.98;;;8.10;61.70;;;;;;5074727;28;20555;-71
2023/12/18 00:34:18;;;;;;;16.75;11.95;;;8.10;61.80;;;;;;5074397;28;20028;-71
2023/12/18 00:36:44;;;;;;;21.40;12.20;;;8.10;62.20;;;;;;5074384;28;20081;-72
2023/12/18 00:39:11;;;;;;;18.48;12.30;;;8.00;62.30;;;;;;5074400;28;20383;-71
2023/12/18 00:41:37;;;;;;;22.17;12.90;;;8.00;62.20;;;;;;5074357;28;20024;-73
2023/12/18 00:44:03;;;;;;;17.77;11.45;;;8.00;62.40;;;;;;5056012;28;20052;-74
2023/12/18 00:46:29;;;;;;;17.92;11.27;;;8.00;62.40;;;;;;5074338;28;20020;-73
2023/12/18 00:48:55;;;;;;;17.85;12.00;;;8.00;62.50;;;;;;5074180;28;20371;-72
2023/12/18 00:51:20;;;;;;;20.63;11.82;;;8.00;62.70;;;;;;5056018;28;20037;-72
2023/12/18 00:53:46;;;;;;;18.13;10.52;;;8.00;62.70;;;;;;5055575;28;20076;-72
2023/12/18 00:56:12;;;;;;;18.80;11.70;;;8.00;62.70;;;;;;5074354;28;20118;-72
2023/12/18 00:58:38;;;;;;;17.77;10.98;;;8.00;62.70;;;;;;5056558;28;20043;-73
2023/12/18 01:01:04;;;;;;;15.02;9.73;;;8.00;63.00;;;;;;5074450;28;20557;-74
2023/12/18 01:03:30;;;;;;;15.63;9.63;;;8.00;62.80;;;;;;5074062;28;20136;-73
2023/12/18 01:05:56;;;;;;;15.18;9.63;;;8.00;63.00;;;;;;5073846;28;20116;-72
2023/12/18 01:08:22;;;;;;;15.30;10.43;;;8.00;63.10;;;;;;5073356;28;20043;-71
2023/12/18 01:10:48;;;;;;;14.57;9.30;;;7.90;63.30;;;;;;5073687;28;20090;-71
2023/12/18 01:13:13;;;;;;;15.35;8.90;;;7.90;63.60;;;;;;5073323;28;20068;-73
2023/12/18 01:15:39;;;;;;;14.70;8.93;;;7.90;63.30;;;;;;5074094;28;20474;-73
2023/12/18 01:18:05;;;;;;;14.00;9.10;;;7.80;63.40;;;;;;5073587;28;20111;-73
2023/12/18 01:20:31;;;;;;;18.30;9.00;;;7.90;63.60;;;;;;5074012;28;20033;-72
2023/12/18 01:22:57;;;;;;;15.68;9.90;;;8.00;63.70;;;;;;5073537;28;20032;-73
2023/12/18 01:25:22;;;;;;;14.98;8.63;;;7.90;63.40;;;;;;5073366;28;20040;-72
2023/12/18 01:27:48;;;;;;;13.15;8.75;;;7.90;63.70;;;;;;5073199;28;20107;-73
2023/12/18 01:30:14;;;;;;;12.52;8.57;;;7.90;63.70;;;;;;5073197;28;20044;-72
2023/12/18 01:32:40;;;;;;;12.30;8.30;;;7.80;63.70;;;;;;5073228;28;20460;-72
2023/12/18 01:35:06;;;;;;;12.10;8.40;;;7.80;63.80;;;;;;5074247;28;20151;-73
2023/12/18 01:37:31;;;;;;;13.00;9.02;;;7.80;64.00;;;;;;5072621;28;20074;-72
2023/12/18 01:39:57;;;;;;;14.88;8.77;;;7.70;64.00;;;;;;5075049;28;20059;-72
2023/12/18 01:42:23;;;;;;;14.50;9.15;;;7.70;64.10;;;;;;5074039;28;20029;-72
2023/12/18 01:44:49;;;;;;;14.48;8.77;;;7.60;64.20;;;;;;5074016;28;20131;-72
2023/12/18 01:47:16;;;;;;;14.18;8.63;;;7.70;64.30;;;;;;5073237;28;20040;-72
2023/12/18 01:49:43;;;;;;;15.02;9.55;;;7.60;64.10;;;;;;5073340;28;20493;-73
2023/12/18 01:52:08;;;;;;;12.45;8.52;;;7.60;64.30;;;;;;5072845;28;20044;-72
2023/12/18 01:54:34;;;;;;;15.98;9.63;;;7.60;64.40;;;;;;5072790;28;20466;-72
2023/12/18 01:57:02;;;;;;;14.38;9.23;;;7.60;64.50;;;;;;5054806;28;20505;-72
2023/12/18 01:59:30;;;;;;;19.02;10.15;;;7.50;64.90;;;;;;5072558;28;20029;-71
2023/12/18 02:01:56;;;;;;;14.52;9.73;;;7.40;64.80;;;;;;5071515;28;20029;-73
2023/12/18 02:04:22;;;;;;;16.10;9.80;;;7.40;65.10;;;;;;5054638;28;20055;-72
2023/12/18 02:06:49;;;;;;;16.27;8.82;;;7.40;65.00;;;;;;5072439;28;20805;-73
2023/12/18 02:09:15;;;;;;;18.75;9.93;;;7.40;65.10;;;;;;5072473;28;20045;-72
2023/12/18 02:11:45;;;;;;;14.02;9.57;;;7.40;65.20;;;;;;5072368;28;20051;-72
2023/12/18 02:14:11;;;;;;;14.60;9.23;;;7.40;65.10;;;;;;5072117;28;20033;-72
2023/12/18 02:16:37;;;;;;;14.85;9.82;;;7.40;65.40;;;;;;5072484;28;20498;-72
2023/12/18 02:19:03;;;;;;;13.18;9.20;;;7.40;65.40;;;;;;5072128;28;20032;-73
2023/12/18 02:21:28;;;;;;;15.32;9.65;;;7.40;65.40;;;;;;5072377;28;20048;-72
2023/12/18 02:23:54;;;;;;;16.83;9.50;;;7.40;65.50;;;;;;5072246;28;20511;-72
2023/12/18 02:26:21;;;;;;;17.75;8.80;;;7.40;65.60;;;;;;5072193;28;20432;-72
2023/12/18 02:28:47;;;;;;;14.65;9.35;;;7.40;65.20;;;;;;5072359;28;20086;-73
2023/12/18 02:31:14;;;;;;;16.48;9.02;;;7.30;65.60;;;;;;5072546;28;20037;-73
2023/12/18 02:33:40;;;;;;;13.40;8.90;;;7.30;65.50;;;;;;5072490;28;20393;-73
2023/12/18 02:36:07;;;;;;;15.00;9.00;;;7.20;65.40;;;;;;5072137;28;20038;-72
2023/12/18 02:38:33;;;;;;;13.10;8.05;;;7.20;65.40;;;;;;5071914;28;20540;-72
2023/12/18 02:40:59;;;;;;;12.23;8.15;;;7.20;65.70;;;;;;5072121;28;20067;-73
2023/12/18 02:43:25;;;;;;;12.00;8.25;;;7.20;66.00;;;;;;5072626;28;20040;-72
2023/12/18 02:45:51;;;;;;;13.20;8.27;;;7.30;65.90;;;;;;5072417;28;20312;-74
2023/12/18 02:48:17;;;;;;;11.82;7.85;;;7.30;65.60;;;;;;5091738;28;20044;-71
2023/12/18 02:50:42;;;;;;;15.65;7.90;;;7.30;65.70;;;;;;5074008;28;20166;-72
2023/12/18 02:53:08;;;;;;;13.00;8.68;;;7.30;65.80;;;;;;5092155;28;20032;-72
2023/12/18 02:55:34;;;;;;;13.55;8.02;;;7.20;65.60;;;;;;5092465;28;20499;-72
2023/12/18 02:58:00;;;;;;;12.45;7.85;;;7.20;65.70;;;;;;5093759;28;20477;-72
2023/12/18 03:00:25;;;;;;;16.98;9.00;;;7.20;65.60;;;;;;5092788;28;20450;-72
2023/12/18 03:02:51;;;;;;;13.30;8.73;;;7.20;65.70;;;;;;5092264;28;20040;-71
2023/12/18 03:05:17;;;;;;;13.60;9.00;;;7.10;65.50;;;;;;5092159;28;20040;-72
2023/12/18 03:07:43;;;;;;;12.93;8.73;;;7.20;65.60;;;;;;5091904;28;20150;-73
2023/12/18 03:10:09;;;;;;;13.32;7.97;;;7.20;65.60;;;;;;5092020;28;20036;-72
2023/12/18 03:12:34;;;;;;;14.07;8.05;;;7.10;65.50;;;;;;5091845;28;20052;-72
2023/12/18 03:15:00;;;;;;;14.55;8.77;;;7.10;65.60;;;;;;5091894;28;20024;-72
2023/12/18 03:17:26;;;;;;;10.68;7.70;;;7.10;65.40;;;;;;5073774;28;20040;-72
2023/12/18 03:19:51;;;;;;;13.30;8.13;;;7.10;65.50;;;;;;5091809;28;20032;-69
2023/12/18 03:22:17;;;;;;;10.45;7.70;;;7.00;65.40;;;;;;5073705;28;20387;-73
2023/12/18 03:24:44;;;;;;;12.15;8.43;;;7.00;65.40;;;;;;5074136;28;20102;-72
2023/12/18 03:27:10;;;;;;;14.68;8.00;;;7.00;65.40;;;;;;5091873;28;20059;-72
2023/12/18 03:29:36;;;;;;;11.10;7.65;;;7.00;65.50;;;;;;5092092;28;20070;-73
2023/12/18 03:32:03;;;;;;;11.30;6.95;;;7.00;65.10;;;;;;5075493;28;20032;-71
2023/12/18 03:34:30;;;;;;;12.00;7.65;;;7.00;65.30;;;;;;5091874;28;20112;-72
2023/12/18 03:36:55;;;;;;;11.65;7.28;;;7.00;65.00;;;;;;5092015;28;20032;-72
2023/12/18 03:39:21;;;;;;;16.13;7.10;;;7.00;65.00;;;;;;5073741;28;20450;-72
2023/12/18 03:41:47;;;;;;;11.68;7.22;;;7.00;65.00;;;;;;5073982;28;20040;-72
2023/12/18 03:44:12;;;;;;;13.00;7.30;;;7.00;64.90;;;;;;5091512;28;20043;-72
2023/12/18 03:46:38;;;;;;;12.63;7.25;;;7.00;64.80;;;;;;5091625;28;20423;-73
2023/12/18 03:49:04;;;;;;;12.27;7.45;;;7.00;64.90;;;;;;5091541;28;20473;-72
2023/12/18 03:51:29;;;;;;;11.73;7.45;;;7.00;64.80;;;;;;5093088;28;20039;-73
2023/12/18 03:53:55;;;;;;;12.95;7.05;;;6.90;64.60;;;;;;5095648;28;20036;-72
2023/12/18 03:56:21;;;;;;;13.10;7.78;;;6.90;64.70;;;;;;5095434;28;20170;-72
2023/12/18 03:58:47;;;;;;;12.63;7.40;;;6.90;64.80;;;;;;5077367;28;20123;-71
2023/12/18 04:01:13;;;;;;;12.63;7.43;;;6.90;64.90;;;;;;5095383;28;20434;-72
2023/12/18 04:03:39;;;;;;;13.57;7.70;;;6.90;64.90;;;;;;5095227;28;20130;-72
2023/12/18 04:06:08;;;;;;;13.27;8.20;;;6.80;65.20;;;;;;5096780;28;20051;-73
2023/12/18 04:08:33;;;;;;;14.68;7.47;;;6.80;65.00;;;;;;5095497;28;20036;-74
2023/12/18 04:10:59;;;;;;;13.85;8.73;;;6.80;65.10;;;;;;5095329;28;20043;-72
2023/12/18 04:13:25;;;;;;;12.50;8.07;;;6.80;65.40;;;;;;5094943;28;20439;-72
2023/12/18 04:15:51;;;;;;;12.48;7.82;;;6.70;65.40;;;;;;5094894;28;20109;-73
2023/12/18 04:18:17;;;;;;;10.20;7.63;;;6.70;65.20;;;;;;5095045;28;20031;-73
2023/12/18 04:20:42;;;;;;;14.45;8.40;;;6.70;65.40;;;;;;5094986;28;20397;-72
2023/12/18 04:23:08;;;;;;;12.68;7.95;;;6.70;65.60;;;;;;5095243;28;20508;-73
2023/12/18 04:25:34;;;;;;;13.10;7.90;;;6.70;65.30;;;;;;5095658;28;20043;-74
2023/12/18 04:28:00;;;;;;;14.35;7.38;;;6.60;65.50;;;;;;5077230;28;20052;-72
2023/12/18 04:30:25;;;;;;;12.18;7.70;;;6.60;65.50;;;;;;5094857;28;20035;-70
2023/12/18 04:32:51;;;;;;;13.73;8.20;;;6.60;65.50;;;;;;5095315;28;20059;-72
2023/12/18 04:35:17;;;;;;;11.55;6.97;;;6.60;65.40;;;;;;5095917;28;20040;-73
2023/12/18 04:37:43;;;;;;;12.85;7.70;;;6.60;65.10;;;;;;5095887;28;20032;-72
2023/12/18 04:40:10;;;;;;;12.32;7.65;;;6.50;65.30;;;;;;5095237;28;20101;-73
2023/12/18 04:42:35;;;;;;;10.73;7.45;;;6.60;66.60;;;;;;5095072;28;20047;-72
2023/12/18 04:45:01;;;;;;;11.85;7.53;;;6.50;65.70;;;;;;5076372;28;20048;-73
2023/12/18 04:47:27;;;;;;;10.40;6.75;;;6.50;65.60;;;;;;5094451;28;20028;-74
2023/12/18 04:49:52;;;;;;;11.93;6.90;;;6.60;65.70;;;;;;5094454;28;20036;-72
2023/12/18 04:52:18;;;;;;;11.25;7.03;;;6.60;65.70;;;;;;5094620;28;20063;-72
2023/12/18 04:54:44;;;;;;;11.32;6.95;;;6.50;65.70;;;;;;5076260;28;20471;-73
2023/12/18 04:57:09;;;;;;;14.73;7.57;;;6.50;65.60;;;;;;5094089;28;20028;-72
2023/12/18 04:59:35;;;;;;;11.77;7.68;;;6.50;65.50;;;;;;5094403;28;20131;-71
2023/12/18 05:02:01;;;;;;;15.98;7.88;;;6.50;65.70;;;;;;5093972;28;20035;-72
2023/12/18 05:04:26;;;;;;;10.95;6.72;;;6.40;65.70;;;;;;5094513;28;20394;-73
2023/12/18 05:06:52;;;;;;;12.15;7.25;;;6.40;65.70;;;;;;5094010;28;20058;-73
2023/12/18 05:09:18;;;;;;;13.68;7.68;;;6.40;66.00;;;;;;5093969;28;20480;-73
2023/12/18 05:11:44;;;;;;;13.25;7.35;;;6.40;66.50;;;;;;5075838;28;20051;-72
2023/12/18 05:14:09;;;;;;;11.00;6.80;;;6.40;66.30;;;;;;5093955;28;20111;-73
2023/12/18 05:16:35;;;;;;;14.05;7.60;;;6.30;66.30;;;;;;5093721;28;20039;-73
2023/12/18 05:19:01;;;;;;;16.00;7.70;;;6.30;66.30;;;;;;5093687;28;20024;-73
2023/12/18 05:21:28;;;;;;;13.85;7.38;;;6.30;66.80;;;;;;5093684;28;20025;-74
2023/12/18 05:23:54;;;;;;;10.32;7.30;;;6.30;66.80;;;;;;5093976;28;20105;-73
2023/12/18 05:26:20;;;;;;;15.93;8.27;;;6.30;66.70;;;;;;5093645;28;20032;-73
2023/12/18 05:28:46;;;;;;;12.98;7.88;;;6.30;67.00;;;;;;5093559;28;20062;-72
2023/12/18 05:31:12;;;;;;;11.23;6.85;;;6.30;67.20;;;;;;5093403;28;20036;-73
2023/12/18 05:33:38;;;;;;;12.55;7.45;;;6.30;67.10;;;;;;5093858;28;20036;-71
2023/12/18 05:36:04;;;;;;;15.52;7.47;;;6.30;67.20;;;;;;5093547;28;20125;-73
2023/12/18 05:38:30;;;;;;;12.55;7.88;;;6.30;67.70;;;;;;5093386;28;20040;-72
2023/12/18 05:40:55;;;;;;;13.65;7.40;;;6.30;67.10;;;;;;5093491;28;20059;-73
2023/12/18 05:43:21;;;;;;;13.48;7.40;;;6.30;67.40;;;;;;5074993;28;20032;-72
2023/12/18 05:45:47;;;;;;;13.35;7.45;;;6.30;67.50;;;;;;5093770;28;20028;-72
2023/12/18 05:48:12;;;;;;;13.57;8.10;;;6.30;67.20;;;;;;5093579;28;20081;-74
2023/12/18 05:50:38;;;;;;;12.32;7.78;;;6.30;67.30;;;;;;5075134;28;20393;-71
2023/12/18 05:53:04;;;;;;;14.27;7.82;;;6.20;67.30;;;;;;5093144;28;20040;-72
2023/12/18 05:55:30;;;;;;;17.90;8.05;;;6.10;67.70;;;;;;5093122;28;20028;-73
2023/12/18 05:57:55;;;;;;;13.38;7.20;;;6.10;68.00;;;;;;5093127;28;20475;-72
2023/12/18 06:00:21;;;;;;;11.98;7.78;;;6.10;67.60;;;;;;5074710;28;20032;-73
2023/12/18 06:02:47;;;;;;;13.52;7.38;;;6.10;67.80;;;;;;5075144;28;20050;-72
2023/12/18 06:05:13;;;;;;;11.93;6.63;;;6.10;67.60;;;;;;5093137;28;20051;-73
2023/12/18 06:07:40;;;;;;;12.80;7.20;;;6.10;67.70;;;;;;5093072;28;20032;-74
2023/12/18 06:10:08;;;;;;;11.77;7.30;;;6.10;67.10;;;;;;5092870;28;20358;-73
2023/12/18 06:12:34;;;;;;;11.43;7.72;;;6.10;68.00;;;;;;5092695;28;20093;-73
2023/12/18 06:15:00;;;;;;;9.98;6.05;;;6.10;67.60;;;;;;5091987;28;20032;-74
2023/12/18 06:17:25;;;;;;;13.65;6.22;;;6.20;67.90;;;;;;5092847;28;20032;-73
2023/12/18 06:19:51;;;;;;;13.43;6.40;;;6.20;67.30;;;;;;5092647;28;20031;-73
2023/12/18 06:22:17;;;;;;;10.15;6.85;;;6.20;67.80;;;;;;5092550;28;20052;-74
2023/12/18 06:24:43;;;;;;;11.43;7.03;;;6.20;67.60;;;;;;5092800;28;20036;-73
2023/12/18 06:27:08;;;;;;;11.75;6.18;;;6.20;67.80;;;;;;5092783;28;20034;-73
2023/12/18 06:29:34;;;;;;;10.82;6.40;;;6.10;67.60;;;;;;5092303;28;20036;-74
2023/12/18 06:32:00;;;;;;;11.48;6.90;;;6.20;67.70;;;;;;5092450;28;20144;-75
2023/12/18 06:34:25;;;;;;;10.40;6.40;;;6.20;67.60;;;;;;5092571;28;20048;-73
2023/12/18 06:36:51;;;;;;;13.25;6.50;;;6.20;67.50;;;;;;5092256;28;20032;-74
2023/12/18 06:39:17;;;;;;;10.70;6.35;;;6.20;67.60;;;;;;5092039;28;20493;-74
2023/12/18 06:41:43;;;;;;;9.55;6.35;;;6.20;67.40;;;;;;5092307;28;20088;-73
2023/12/18 06:44:08;;;;;;;13.07;6.70;;;6.10;67.20;;;;;;5092323;28;20048;-72
2023/12/18 06:46:34;;;;;;;9.93;6.22;;;6.20;67.40;;;;;;5092563;28;20486;-73
2023/12/18 06:49:03;;;;;;;11.13;6.00;;;6.10;67.30;;;;;;5092365;28;20062;-73
2023/12/18 06:51:29;;;;;;;15.68;7.78;;;6.20;67.40;;;;;;5073972;28;20040;-73
2023/12/18 06:53:55;;;;;;;11.27;6.63;;;6.20;67.10;;;;;;5092709;28;20434;-73
2023/12/18 06:56:21;;;;;;;10.18;6.25;;;6.30;67.30;;;;;;5074182;28;20036;-73
2023/12/18 06:58:46;;;;;;;11.32;6.75;;;6.60;67.40;;;;;;5092374;28;20078;-74
2023/12/18 07:01:16;;;;;;;13.77;6.50;;;7.00;66.50;;;;;;5092333;28;20374;-76
2023/12/18 07:03:42;;;;;;;11.32;6.13;;;7.60;66.10;;;;;;5092601;28;20068;-75
2023/12/18 07:06:07;;;;;;;12.57;7.00;;;8.10;64.70;;;;;;5096976;28;20036;-75
2023/12/18 07:08:33;;;;;;;13.00;6.78;;;8.70;63.80;;;;;;5098121;28;20046;-76
2023/12/18 07:10:59;;;;;;;10.55;6.38;;;9.20;63.20;;;;;;5075365;28;20187;-74
2023/12/18 07:13:25;;;;;;;12.90;6.97;;;9.60;62.10;;;;;;5093012;28;20257;-76
2023/12/18 07:15:51;;;;;;;11.23;6.50;;;9.90;61.50;;;;;;5093521;28;20485;-73
2023/12/18 07:18:17;;;;;;;13.88;7.13;;;10.20;59.80;;;;;;5091964;28;20036;-74
2023/12/18 07:20:43;;;;;;;11.55;6.80;;;10.40;59.10;;;;;;5091971;28;20039;-73
2023/12/18 07:23:10;;;;;;;13.15;7.05;;;10.60;58.70;;;;;;5074193;28;20416;-74
2023/12/18 07:25:36;;;;;;;11.85;7.40;;;10.80;58.20;;;;;;5075394;28;20040;-73
2023/12/18 07:28:07;;;;;;;14.68;7.70;;;11.00;57.70;;;;;;5077919;28;20387;-74
2023/12/18 07:30:33;;;;;;;15.07;7.32;;;11.30;57.50;;;;;;5095838;28;20028;-73
2023/12/18 07:32:59;;;;;;;12.93;7.00;;;11.40;56.90;;;;;;5077667;28;20366;-73
2023/12/18 07:35:25;;;;;;;14.40;7.40;;;10.60;56.90;;;;;;5095576;28;20036;-74
2023/12/18 07:37:51;;;;;;;11.18;6.55;;;9.70;58.90;;;;;;5095513;28;20119;-73
2023/12/18 07:40:17;;;;;;;13.52;6.90;;;9.00;60.10;;;;;;5095732;28;20116;-74
2023/12/18 07:42:42;;;;;;;10.68;6.82;;;8.60;60.90;;;;;;5095869;28;20035;-75
2023/12/18 07:45:08;;;;;;;14.65;7.80;;;8.20;61.60;;;;;;5096357;28;20102;-73
2023/12/18 07:47:37;;;;;;;11.80;7.55;;;7.90;62.10;;;;;;5095817;28;20029;-74
2023/12/18 07:50:07;;;;;;;13.40;7.60;;;7.70;62.50;;;;;;5096037;28;20434;-74
2023/12/18 07:52:33;;;;;;;10.43;7.00;;;7.50;63.30;;;;;;5095583;28;20077;-74
2023/12/18 07:54:58;;;;;;;14.35;7.65;;;7.30;62.70;;;;;;5095485;28;20040;-74
2023/12/18 07:57:24;;;;;;;11.18;7.45;;;7.30;63.30;;;;;;5095649;28;20558;-73
2023/12/18 07:59:50;;;;;;;12.25;8.10;;;7.20;63.40;;;;;;5095398;28;20033;-73
2023/12/18 08:02:15;;;;;;;14.68;8.02;;;7.20;63.60;;;;;;5095398;28;20094;-74
2023/12/18 08:04:41;;;;;;;13.45;7.70;;;7.20;63.40;;;;;;5095469;28;20181;-74
2023/12/18 08:07:07;;;;;;;17.58;9.57;;;7.20;63.30;;;;;;5096098;28;20028;-74
2023/12/18 08:09:33;;;;;;;14.23;9.25;;;7.20;63.60;;;;;;5095900;28;20495;-74
2023/12/18 08:11:58;;;;;;;16.90;9.82;;;7.10;63.40;;;;;;5096213;28;20040;-74
2023/12/18 08:14:24;;;;;;;16.55;9.77;;;7.10;63.60;;;;;;5095245;28;20024;-73
2023/12/18 08:16:50;;;;;;;16.52;9.13;;;7.20;63.60;;;;;;5076553;28;20378;-74
2023/12/18 08:19:16;;;;;;;13.55;7.70;;;7.20;63.60;;;;;;5094918;28;20028;-73
2023/12/18 08:21:43;;;;;;;16.20;7.78;;;7.20;63.30;;;;;;5094688;28;20036;-74
2023/12/18 08:24:08;;;;;;;14.45;8.10;;;7.20;63.40;;;;;;5094867;28;20469;-72
2023/12/18 08:26:34;;;;;;;17.27;10.18;;;7.30;63.30;;;;;;5094668;28;20038;-74
2023/12/18 08:29:00;;;;;;;14.52;9.10;;;7.30;63.20;;;;;;5094501;28;20501;-73
2023/12/18 08:31:26;;;;;;;13.55;8.93;;;7.40;63.20;;;;;;5076390;28;20513;-73
2023/12/18 08:33:52;;;;;;;15.63;8.20;;;7.40;63.00;;;;;;5094462;28;20036;-73
2023/12/18 08:36:18;;;;;;;16.15;7.82;;;7.40;62.90;;;;;;5093860;28;20032;-72
2023/12/18 08:38:44;;;;;;;14.55;8.32;;;7.50;63.00;;;;;;5093663;28;20112;-75
2023/12/18 08:41:10;;;;;;;13.68;7.10;;;7.50;62.80;;;;;;5094601;28;20343;-73
2023/12/18 08:43:35;;;;;;;17.10;7.78;;;7.60;62.70;;;;;;5094768;28;20140;-73
2023/12/18 08:46:01;;;;;;;15.27;8.48;;;7.70;62.80;;;;;;5095576;28;20055;-72
2023/12/18 08:48:27;;;;;;;16.52;7.45;;;7.70;62.60;;;;;;5095459;28;20029;-75
2023/12/18 08:50:53;;;;;;;14.70;8.10;;;7.80;62.60;;;;;;5096427;28;20055;-73
2023/12/18 08:53:19;;;;;;;13.98;7.78;;;7.90;62.80;;;;;;5094823;28;20032;-73
2023/12/18 08:55:44;;;;;;;12.77;7.55;;;7.90;62.60;;;;;;5094540;28;20102;-73
2023/12/18 08:58:10;;;;;;;16.00;7.95;;;8.00;62.60;;;;;;5094411;28;20043;-73
2023/12/18 09:00:36;;;;;;;14.13;8.00;;;8.10;62.50;;;;;;5094239;28;20039;-73
2023/12/18 09:03:03;;;;;;;14.25;7.80;;;8.20;62.60;;;;;;5094022;28;20024;-75
2023/12/18 09:05:30;;;;;;;12.65;7.25;;;8.20;62.40;;;;;;5094034;28;20396;-72
2023/12/18 09:07:55;;;;;;;16.40;7.70;;;8.30;62.40;;;;;;5094198;28;20035;-74
2023/12/18 09:10:24;;;;;;;12.95;7.20;;;8.30;62.20;;;;;;5076306;28;20032;-74
2023/12/18 09:12:51;;;;;;;12.40;7.05;;;8.40;61.80;;;;;;5093570;28;20579;-72
2023/12/18 09:15:17;;;;;;;12.13;7.00;;;8.50;61.90;;;;;;5093697;28;20161;-74
2023/12/18 09:17:43;;;;;;;11.35;7.05;;;8.60;61.60;;;;;;5093877;28;20111;-74
2023/12/18 09:20:09;;;;;;;13.27;7.35;;;8.70;61.60;;;;;;5093846;28;20039;-74
2023/12/18 09:22:36;;;;;;;11.73;6.55;;;8.80;61.50;;;;;;5076250;28;20036;-73
2023/12/18 09:25:02;;;;;;;15.40;7.10;;;8.90;61.40;;;;;;5094754;28;20044;-73
2023/12/18 09:27:28;;;;;;;12.23;6.55;;;8.90;60.90;;;;;;5094193;28;20143;-73
2023/12/18 09:29:53;;;;;;;13.27;7.53;;;9.00;61.00;;;;;;5093843;28;20060;-74
2023/12/18 09:32:19;;;;;;;11.85;7.07;;;9.10;61.10;;;;;;5093624;28;20058;-73
2023/12/18 09:34:45;;;;;;;11.80;6.40;;;9.20;60.90;;;;;;5093765;28;20032;-71
2023/12/18 09:37:11;;;;;;;12.40;7.25;;;9.30;60.70;;;;;;5094071;28;20543;-74
2023/12/18 09:39:36;;;;;;;13.07;7.25;;;9.40;60.70;;;;;;5095116;28;20035;-73
2023/12/18 09:42:04;;;;;;;11.20;6.43;;;9.40;61.00;;;;;;5096184;28;20074;-73
2023/12/18 09:44:31;;;;;;;13.00;7.22;;;9.50;60.40;;;;;;5077486;28;20050;-73
2023/12/18 09:46:58;;;;;;;13.90;6.72;;;9.60;60.20;;;;;;5094520;28;20435;-74
2023/12/18 09:49:24;;;;;;;13.90;6.15;;;9.70;60.00;;;;;;5093550;28;20036;-74
2023/12/18 09:51:53;;;;;;;10.82;6.20;;;9.80;59.80;;;;;;5093070;28;20028;-74
2023/12/18 09:54:21;;;;;;;12.85;6.70;;;9.90;59.50;;;;;;5093508;28;20035;-74
2023/12/18 09:56:48;;;;;;;11.23;5.88;;;9.90;59.30;;;;;;5093183;28;20063;-75
2023/12/18 09:59:17;;;;;;;11.70;6.65;;;10.00;57.90;;;;;;5093299;28;20039;-74
2023/12/18 10:01:45;;;;;;;10.07;6.20;;;10.10;58.20;;;;;;5093969;28;20576;-74
2023/12/18 10:04:12;;;;;;;10.98;5.68;;;10.20;58.60;;;;;;5092803;28;20110;-72
2023/12/18 10:06:38;;;;;;;14.77;6.75;;;10.30;57.90;;;;;;5093031;28;20107;-73
2023/12/18 10:09:12;;;;;;;10.55;5.78;;;10.40;57.90;;;;;;5093221;28;20109;-73
2023/12/18 10:11:38;;;;;;;11.55;6.20;;;10.50;57.50;;;;;;5093009;28;20035;-74
2023/12/18 10:14:04;;;;;;;11.05;6.05;;;10.50;57.40;;;;;;5092957;28;20024;-73
2023/12/18 10:16:31;;;;;;;11.80;6.28;;;10.60;57.10;;;;;;5092802;28;20523;-74
2023/12/18 10:18:57;;;;;;;10.35;5.85;;;10.70;56.80;;;;;;5093115;28;20367;-74
2023/12/18 10:21:24;;;;;;;10.10;6.10;;;10.80;56.60;;;;;;5093058;28;20031;-73
2023/12/18 10:23:53;;;;;;;13.38;6.65;;;10.80;56.30;;;;;;5092369;28;20127;-74
2023/12/18 10:26:19;;;;;;;16.95;6.63;;;11.00;56.10;;;;;;5092638;28;20043;-73
2023/12/18 10:28:45;;;;;;;11.57;6.28;;;11.00;56.00;;;;;;5092393;28;20063;-73
2023/12/18 10:31:11;;;;;;;14.85;6.50;;;11.10;55.90;;;;;;5092645;28;20103;-74
2023/12/18 10:33:37;;;;;;;28.85;7.90;;;11.20;55.80;;;;;;5092347;28;20032;-73
2023/12/18 10:36:08;;;;;;;15.05;7.05;;;11.20;55.80;;;;;;5092616;28;20064;-74
2023/12/18 10:38:36;;;;;;;14.25;7.13;;;11.30;56.10;;;;;;5092549;28;20338;-73
2023/12/18 10:41:04;;;;;;;15.23;6.20;;;11.40;55.90;;;;;;5093075;28;20023;-74
2023/12/18 10:43:35;;;;;;;13.35;5.78;;;11.50;55.80;;;;;;5092644;28;20524;-73
2023/12/18 10:46:03;;;;;;;12.48;6.72;;;11.50;55.40;;;;;;5092431;28;20039;-73
2023/12/18 10:48:29;;;;;;;16.95;6.63;;;11.60;55.30;;;;;;5092646;28;20024;-73
2023/12/18 10:50:56;;;;;;;12.98;6.30;;;11.70;55.40;;;;;;5092633;28;20032;-74
2023/12/18 10:53:26;;;;;;;16.33;7.15;;;11.80;55.20;;;;;;5091997;28;20119;-74
2023/12/18 10:55:53;;;;;;;16.08;6.30;;;11.80;54.50;;;;;;5092098;28;20509;-74
2023/12/18 10:58:20;;;;;;;14.85;6.30;;;11.90;54.40;;;;;;5092186;28;20027;-73
2023/12/18 11:00:46;;;;;;;16.55;6.40;;;12.00;54.20;;;;;;5077575;28;20374;-74
2023/12/18 11:03:13;;;;;;;12.70;6.45;;;12.10;54.00;;;;;;5099280;28;20032;-73
2023/12/18 11:05:41;;;;;;;10.05;5.55;;;12.10;53.30;;;;;;5098907;28;20485;-73
2023/12/18 11:08:07;;;;;;;9.35;5.93;;;12.20;52.90;;;;;;5098968;28;20032;-75
2023/12/18 11:10:34;;;;;;;9.82;5.65;;;12.30;52.50;;;;;;5098854;28;20032;-74
2023/12/18 11:13:31;;;;;;;9.43;5.03;;;12.30;52.20;;;;;;5080198;28;20412;-73
2023/12/18 11:16:25;;;;;;;8.75;4.93;;;12.40;51.30;;;;;;5096836;28;20036;-74
2023/12/18 11:19:06;;;;;;;9.32;4.35;;;12.40;51.00;;;;;;5099051;28;20036;-75
2023/12/18 11:21:34;;;;;;;9.63;4.57;;;12.50;50.80;;;;;;5098940;28;20031;-73
2023/12/18 11:23:59;;;;;;;8.38;4.97;;;12.60;51.10;;;;;;5098621;28;20047;-72
2023/12/18 11:26:29;;;;;;;7.32;4.32;;;12.70;50.70;;;;;;5098537;28;20107;-75
2023/12/18 11:29:02;;;;;;;8.07;4.97;;;12.80;50.80;;;;;;5098771;28;20512;-74
2023/12/18 11:31:28;;;;;;;10.50;4.93;;;12.90;50.50;;;;;;5098731;28;20093;-73
2023/12/18 11:34:01;;;;;;;9.38;5.18;;;12.90;50.60;;;;;;5098716;28;20470;-74
2023/12/18 11:36:27;;;;;;;8.05;4.28;;;13.00;50.00;;;;;;5080166;28;20389;-73
2023/12/18 11:38:53;;;;;;;10.10;5.30;;;13.10;50.80;;;;;;5080891;28;20043;-74
2023/12/18 11:41:38;;;;;;;12.23;6.30;;;13.10;50.00;;;;;;5099673;28;20036;-74
2023/12/18 11:44:07;;;;;;;11.65;5.85;;;13.10;50.00;;;;;;5100219;28;20513;-74
2023/12/18 11:46:33;;;;;;;10.73;6.20;;;13.20;50.20;;;;;;5099636;28;20065;-75
2023/12/18 11:49:02;;;;;;;12.63;6.38;;;13.30;50.50;;;;;;5099386;28;20485;-74
2023/12/18 11:51:30;;;;;;;14.55;7.10;;;13.30;50.30;;;;;;5098918;28;20107;-72
2023/12/18 11:54:00;;;;;;;13.80;6.63;;;13.40;50.10;;;;;;5099468;28;20028;-72
2023/12/18 11:56:40;;;;;;;12.00;6.80;;;13.40;50.60;;;;;;5098554;28;20112;-73
2023/12/18 11:59:07;;;;;;;13.73;6.57;;;13.50;50.50;;;;;;5099007;28;20040;-75
2023/12/18 12:01:32;;;;;;;12.00;6.18;;;13.60;50.40;;;;;;5098329;28;20038;-74
2023/12/18 12:03:59;;;;;;;11.15;6.50;;;13.70;50.40;;;;;;5080067;28;20044;-73
2023/12/18 12:06:26;;;;;;;9.82;5.82;;;13.70;50.20;;;;;;5080237;28;20043;-74
2023/12/18 12:08:51;;;;;;;11.70;6.38;;;13.80;49.70;;;;;;5098458;28;20397;-73
2023/12/18 12:11:18;;;;;;;14.43;8.20;;;13.80;49.70;;;;;;5097503;28;20034;-74
2023/12/18 12:13:45;;;;;;;12.95;8.75;;;13.90;49.30;;;;;;5094611;28;20029;-73
2023/12/18 12:16:17;;;;;;;11.93;7.30;;;13.90;49.30;;;;;;5095475;28;20451;-75
2023/12/18 12:18:47;;;;;;;12.60;7.43;;;14.00;48.70;;;;;;5076904;28;20032;-74
2023/12/18 12:21:14;;;;;;;15.68;7.05;;;14.10;48.70;;;;;;5095202;28;20032;-73
2023/12/18 12:23:40;;;;;;;10.25;6.22;;;14.20;48.60;;;;;;5094528;28;20553;-75
2023/12/18 12:26:07;;;;;;;10.10;5.22;;;14.20;48.30;;;;;;5095028;28;20070;-74
2023/12/18 12:28:33;;;;;;;14.10;5.75;;;14.30;48.50;;;;;;5094888;28;20099;-74
2023/12/18 12:30:59;;;;;;;10.38;5.25;;;14.30;48.00;;;;;;5095409;28;20038;-73
2023/12/18 12:33:24;;;;;;;17.25;5.70;;;14.40;47.70;;;;;;5094829;28;20119;-74
2023/12/18 12:35:52;;;;;;;13.23;5.53;;;14.50;47.10;;;;;;5095861;28;20334;-73
2023/12/18 12:38:18;;;;;;;12.90;5.10;;;14.50;46.90;;;;;;5095611;28;20029;-74